Beja, Tunisia

9:15 PM CET on August 23, 2014 (GMT +0100)
7 November | Change Station
CLOSE
Current Station
Airport
Location: Tabarka,
Elevation: 230 ft
Nearby Weather Stations

Elev 230 ft 36.98 °N, 8.88 °E | Updated 15 minutes ago

Thunderstorm
Thunderstorm
75 °F
Feels Like 75 °F
N
6
Wind Variable Wind from South

Today
High -- | Low -- °F
--% Chance of Precip.
Yesterday
High -- | Low -- °F
Precip. -- in
5:46 AM 7:04 PM
Waning Crescent, 3% visible
Pressure 30.06 in
Visibility 6.2 miles
Clouds Scattered Clouds 2000 ft
Few 3000 ft
Mostly Cloudy 10000 ft
Dew Point 68 °F
Humidity 78%
Rainfall 0.00 in
Snow Depth Not available.
UV 0 out of 12
Pollen Not available.
Air Quality Not available.
Flu Activity Not available.
METAR DTKA 232000Z 18005KT 130V190 9999 TS SCT020 FEW030CB BKN100 24/20 Q1018 NOSIG RMK CB.S

More Conditions Fewer Conditions

Pressure 30.06 in
Visibility 6.2 miles
Clouds Scattered Clouds 2000 ft
Few 3000 ft
Mostly Cloudy 10000 ft
Dew Point 68 °F
Humidity 78%
Rainfall 0.00 in
Snow Depth Not available.
UV 0 out of 12
Pollen Not available.
Air Quality Not available.
Flu Activity Not available.
METAR DTKA 232000Z 18005KT 130V190 9999 TS SCT020 FEW030CB BKN100 24/20 Q1018 NOSIG RMK CB.S

More Conditions Fewer Conditions

10-Day Weather Forecast

Almanac

Astronomy

Aug. 23, 2014 Rise Set
Actual Time 5:46 AM CET 7:04 PM CET
Civil Twilight 5:19 AM CET 7:31 PM CET
Nautical Twilight 4:47 AM CET 8:03 PM CET
Astronomical Twilight 4:13 AM CET 8:37 PM CET
Moon 3:49 AM CET 5:38 PM CET
Length of Visible Light 14h 11m
Length of Day
13h 17m
Tomorrow will be 2m 10s shorter.
Waning Crescent, 3% of the Moon is Illuminated
Today
Waning Crescent
Aug 25
New
Sep 2
First Quarter
Sep 8
Full
Sep 15
Last Quarter

Today's Extremes

Country Highs Country Lows

Community

WunderPhotos

Upload Photos

1,746,597 photos uploaded!

WunderBlogs® & News

Nearby

Snow Depth

Not available.

Earthquake Activity

City Distance Mag. Time & Date
No recent earthquake activity has been reported nearby.
Minimum magnitude displayed is 2.5.

Coastal Water Temperatures

Place Temperature
No Stations Reporting

Nearby Weather Stations